Ocean Fresh — WDC4996 — position and weather

sailwx.info

Track history (hours):
 
Tides and Currents Weather Stations Pressure Air Temp Water Temp Dewpoint Dewpoint Depression Visibility Wind Speed Wind Dir Waves Ship Positions

Ocean Fresh

Owner: Ocean Fresh Seafood company, Seattle, WA. More information available from US FCC via Universal Licensing System and Coast Guard Vessel Documentation Center.

Last reported at 2016-Aug-21 03:21 UTC. Time now 2016-Aug-24 19:46 UTC.
Position N 47°40' W 122°23'.

Length 67 m; draft 4.5 m.

Type: Ship (hazmat cat A). MMSI: 367773000.

Date/timePositionNaut miles runAvg speedWind from/ knotsBaromVisibWave heightAir tempDewpointWater temp
2016-Aug-21 03:21N 47°40' W 122°23'0 0.0
2016-Aug-21 02:33N 47°40' W 122°23'0 0.2
2016-Aug-21 01:33N 47°40' W 122°24'1 0.5
2016-Aug-21 00:34N 47°40' W 122°24'5 4.8
2016-Aug-20 23:34N 47°45' W 122°24'10 9.6
2016-Aug-20 22:34N 47°54' W 122°30'1211.9
2016-Aug-20 21:32N 48°04' W 122°39'1211.6
2016-Aug-20 20:33N 48°14' W 122°48'1212.3
2016-Aug-20 19:33N 48°26' W 122°45'1313.2
2016-Aug-20 18:33N 48°39' W 122°44'1212.4
2016-Aug-20 17:33N 48°48' W 122°56'1212.3
2016-Aug-20 16:34N 48°55' W 123°12'1111.0
2016-Aug-20 15:34N 49°04' W 123°21'1313.0
2016-Aug-20 14:34N 49°13' W 123°36'1212.5
2016-Aug-20 13:34N 49°20' W 123°51'1212.0
2016-Aug-20 12:33N 49°27' W 124°06'1212.0
2016-Aug-20 11:34N 49°34' W 124°22'1212.0
2016-Aug-20 10:34N 49°41' W 124°36'1212.4
2016-Aug-20 09:33N 49°49' W 124°51'1212.2
2016-Aug-20 08:34N 49°57' W 125°06'1111.0
2016-Aug-20 07:34N 50°05' W 125°17'6 5.7
2016-Aug-20 06:34N 50°10' W 125°22'4 3.8
2016-Aug-20 05:34N 50°14' W 125°23'4 3.6
2016-Aug-20 04:33N 50°17' W 125°25'4 4.4
2016-Aug-20 03:34N 50°21' W 125°26'4310.8
2016-Aug-19 23:33N 50°30' W 126°32'1211.8
2016-Aug-19 22:30N 50°38' W 126°47'1313.2
2016-Aug-19 21:33N 50°46' W 127°03'1212.7
2016-Aug-19 20:34N 50°52' W 127°19'1312.9
2016-Aug-19 19:33N 51°00' W 127°35'1212.0
2016-Aug-19 18:33N 51°09' W 127°49'1311.8
2016-Aug-19 17:26N 51°22' W 127°51'1112.0
2016-Aug-19 16:33N 51°32' W 127°52'  
Track history (hours):
 
Tides and Currents Weather Stations Pressure Air Temp Water Temp Dewpoint Dewpoint Depression Visibility Wind Speed Wind Dir Waves Ship Positions

Ocean Fresh

Owner: Ocean Fresh Seafood company, Seattle, WA. More information available from US FCC via Universal Licensing System and Coast Guard Vessel Documentation Center.

Last reported at 2016-Aug-21 03:21 UTC. Time now 2016-Aug-24 19:46 UTC.
Position N 47°40' W 122°23'.

Length 67 m; draft 4.5 m.

Type: Ship (hazmat cat A). MMSI: 367773000.

Date/timePositionNaut miles runAvg speedWind from/ knotsBaromVisibWave heightAir tempDewpointWater temp
2016-Aug-21 03:21N 47°40' W 122°23'0 0.0
2016-Aug-21 02:33N 47°40' W 122°23'0 0.2
2016-Aug-21 01:33N 47°40' W 122°24'1 0.5
2016-Aug-21 00:34N 47°40' W 122°24'5 4.8
2016-Aug-20 23:34N 47°45' W 122°24'10 9.6
2016-Aug-20 22:34N 47°54' W 122°30'1211.9
2016-Aug-20 21:32N 48°04' W 122°39'1211.6
2016-Aug-20 20:33N 48°14' W 122°48'1212.3
2016-Aug-20 19:33N 48°26' W 122°45'1313.2
2016-Aug-20 18:33N 48°39' W 122°44'1212.4
2016-Aug-20 17:33N 48°48' W 122°56'1212.3
2016-Aug-20 16:34N 48°55' W 123°12'1111.0
2016-Aug-20 15:34N 49°04' W 123°21'1313.0
2016-Aug-20 14:34N 49°13' W 123°36'1212.5
2016-Aug-20 13:34N 49°20' W 123°51'1212.0
2016-Aug-20 12:33N 49°27' W 124°06'1212.0
2016-Aug-20 11:34N 49°34' W 124°22'1212.0
2016-Aug-20 10:34N 49°41' W 124°36'1212.4
2016-Aug-20 09:33N 49°49' W 124°51'1212.2
2016-Aug-20 08:34N 49°57' W 125°06'1111.0
2016-Aug-20 07:34N 50°05' W 125°17'6 5.7
2016-Aug-20 06:34N 50°10' W 125°22'4 3.8
2016-Aug-20 05:34N 50°14' W 125°23'4 3.6
2016-Aug-20 04:33N 50°17' W 125°25'4 4.4
2016-Aug-20 03:34N 50°21' W 125°26'4310.8
2016-Aug-19 23:33N 50°30' W 126°32'1211.8
2016-Aug-19 22:30N 50°38' W 126°47'1313.2
2016-Aug-19 21:33N 50°46' W 127°03'1212.7
2016-Aug-19 20:34N 50°52' W 127°19'1312.9
2016-Aug-19 19:33N 51°00' W 127°35'1212.0
2016-Aug-19 18:33N 51°09' W 127°49'1311.8
2016-Aug-19 17:26N 51°22' W 127°51'1112.0
2016-Aug-19 16:33N 51°32' W 127°52'  

Dump ship's entire track history